createdAt,value
2019-03-16T00:00:59.007Z,19.78
2019-03-16T00:01:59.240Z,19.75
2019-03-16T00:02:59.288Z,19.78
2019-03-16T00:03:59.013Z,19.75
2019-03-16T00:04:58.862Z,19.77
2019-03-16T00:05:59.004Z,19.77
2019-03-16T00:06:59.035Z,19.75
2019-03-16T00:07:58.910Z,19.74
2019-03-16T00:08:59.053Z,19.73
2019-03-16T00:09:59.116Z,19.74
2019-03-16T00:10:58.984Z,19.75
2019-03-16T00:12:00.511Z,19.71
2019-03-16T00:12:59.264Z,19.71
2019-03-16T00:13:58.988Z,19.7
2019-03-16T00:14:59.119Z,19.73
2019-03-16T00:15:58.922Z,19.73
2019-03-16T00:16:59.208Z,19.68
2019-03-16T00:17:59.153Z,19.68
2019-03-16T00:18:58.943Z,19.7
2019-03-16T00:19:58.979Z,19.71
2019-03-16T00:20:59.207Z,19.68
2019-03-16T00:21:59.031Z,19.65
2019-03-16T00:22:59.208Z,19.67
2019-03-16T00:23:58.998Z,19.65
2019-03-16T00:24:59.069Z,19.65
2019-03-16T00:25:59.383Z,19.65
2019-03-16T00:26:58.883Z,19.64
2019-03-16T00:27:59.026Z,19.64
2019-03-16T00:28:59.122Z,19.61
2019-03-16T00:29:58.937Z,19.61
2019-03-16T00:30:59.146Z,19.64
2019-03-16T00:32:03.725Z,19.61
2019-03-16T00:32:58.959Z,19.6
2019-03-16T00:33:59.111Z,19.65
2019-03-16T00:34:58.958Z,19.64
2019-03-16T00:35:59.124Z,19.61
2019-03-16T00:36:59.223Z,19.63
2019-03-16T00:37:59.066Z,19.61
2019-03-16T00:38:59.167Z,19.6
2019-03-16T00:39:59.121Z,19.6
2019-03-16T00:40:59.039Z,19.61
2019-03-16T00:41:59.377Z,19.63
2019-03-16T00:42:59.140Z,19.61
2019-03-16T00:43:59.114Z,19.57
2019-03-16T00:44:59.103Z,19.57
2019-03-16T00:45:59.019Z,19.56
2019-03-16T00:46:59.130Z,19.58
2019-03-16T00:47:58.935Z,19.56
2019-03-16T00:48:58.961Z,19.57
2019-03-16T00:49:59.152Z,19.57
2019-03-16T00:50:58.950Z,19.54
2019-03-16T00:51:59.122Z,19.53
2019-03-16T00:52:59.203Z,19.53
2019-03-16T00:53:59.067Z,19.53
2019-03-16T00:54:58.999Z,19.54
2019-03-16T00:55:59.002Z,19.54
2019-03-16T00:56:59.064Z,19.5
2019-03-16T00:57:59.118Z,19.53
2019-03-16T00:58:59.121Z,19.5
2019-03-16T00:59:58.984Z,19.53
2019-03-16T01:00:59.524Z,19.5
2019-03-16T01:01:58.931Z,19.52
2019-03-16T01:02:59.044Z,19.53
2019-03-16T01:03:59.452Z,19.53
2019-03-16T01:04:58.956Z,19.5
2019-03-16T01:05:59.131Z,19.52
2019-03-16T01:06:58.999Z,19.5
2019-03-16T01:07:58.960Z,19.49
2019-03-16T01:08:59.158Z,19.49
2019-03-16T01:09:59.020Z,19.49
2019-03-16T01:10:59.154Z,19.49
2019-03-16T01:11:59.127Z,19.5
2019-03-16T01:12:58.989Z,19.47
2019-03-16T01:13:59.080Z,19.46
2019-03-16T01:14:59.162Z,19.47
2019-03-16T01:15:59.022Z,19.46
2019-03-16T01:16:59.076Z,19.49
2019-03-16T01:17:58.998Z,19.45
2019-03-16T01:18:59.054Z,19.46
2019-03-16T01:19:59.098Z,19.45
2019-03-16T01:20:58.899Z,19.45
2019-03-16T01:21:59.058Z,19.43
2019-03-16T01:22:59.209Z,19.47
2019-03-16T01:23:59.097Z,19.42
2019-03-16T01:24:59.199Z,19.4
2019-03-16T01:25:58.943Z,19.46
2019-03-16T01:26:58.940Z,19.45
2019-03-16T01:27:59.117Z,19.4
2019-03-16T01:28:58.992Z,19.43
2019-03-16T01:29:58.915Z,19.42
2019-03-16T01:30:59.099Z,19.45
2019-03-16T01:31:59.103Z,19.4
2019-03-16T01:32:59.095Z,19.43
2019-03-16T01:33:59.085Z,19.43
2019-03-16T01:34:59.005Z,19.42
2019-03-16T01:35:59.347Z,19.39
2019-03-16T01:36:58.982Z,19.4
2019-03-16T01:37:59.081Z,19.39
2019-03-16T01:38:59.092Z,19.39
2019-03-16T01:39:58.902Z,19.37
2019-03-16T01:40:59.235Z,19.37
2019-03-16T01:41:58.879Z,19.36
2019-03-16T01:42:59.024Z,19.37
2019-03-16T01:43:59.081Z,19.36
2019-03-16T01:44:59.221Z,19.35
2019-03-16T01:45:58.985Z,19.36
2019-03-16T01:46:59.156Z,19.33
2019-03-16T01:47:59.025Z,19.35
2019-03-16T01:48:59.086Z,19.33
2019-03-16T01:49:58.808Z,19.33
2019-03-16T01:50:58.984Z,19.33
2019-03-16T01:51:59.153Z,19.35
2019-03-16T01:52:58.855Z,19.33
2019-03-16T01:53:59.246Z,19.35
2019-03-16T01:54:59.054Z,19.33
2019-03-16T01:55:59.021Z,19.36
2019-03-16T01:56:58.984Z,19.36
2019-03-16T01:57:59.043Z,19.32
2019-03-16T01:58:58.928Z,19.33
2019-03-16T01:59:59.038Z,19.32
2019-03-16T02:00:59.184Z,19.33
2019-03-16T02:01:58.960Z,19.32
2019-03-16T02:02:59.070Z,19.32
2019-03-16T02:03:58.841Z,19.33
2019-03-16T02:04:59.077Z,19.29
2019-03-16T02:05:59.480Z,19.29
2019-03-16T02:07:00.829Z,19.29
2019-03-16T02:07:59.084Z,19.3
2019-03-16T02:08:59.102Z,19.33
2019-03-16T02:09:58.962Z,19.3
2019-03-16T02:10:58.970Z,19.3
2019-03-16T02:12:00.967Z,19.32
2019-03-16T02:12:58.998Z,19.3
2019-03-16T02:13:59.320Z,19.29
2019-03-16T02:14:58.826Z,19.3
2019-03-16T02:16:11.858Z,19.29
2019-03-16T02:16:59.121Z,19.27
2019-03-16T02:17:59.141Z,19.27
2019-03-16T02:18:58.995Z,19.27
2019-03-16T02:19:59.135Z,19.29
2019-03-16T02:20:58.953Z,19.27
2019-03-16T02:21:59.120Z,19.29
2019-03-16T02:22:59.050Z,19.27
2019-03-16T02:23:58.854Z,19.29
2019-03-16T02:24:59.141Z,19.26
2019-03-16T02:25:59.166Z,19.26
2019-03-16T02:26:59.042Z,19.26
2019-03-16T02:27:59.090Z,19.26
2019-03-16T02:28:58.965Z,19.25
2019-03-16T02:29:59.017Z,19.25
2019-03-16T02:30:59.109Z,19.26
2019-03-16T02:31:59.069Z,19.2
2019-03-16T02:33:14.220Z,19.25
2019-03-16T02:33:59.102Z,19.25
2019-03-16T02:34:59.132Z,19.23
2019-03-16T02:35:59.083Z,19.25
2019-03-16T02:36:59.161Z,19.25
2019-03-16T02:37:58.923Z,19.23
2019-03-16T02:38:59.058Z,19.22
2019-03-16T02:39:59.339Z,19.22
2019-03-16T02:40:58.974Z,19.25
2019-03-16T02:41:59.060Z,19.2
2019-03-16T02:42:58.987Z,19.2
2019-03-16T02:43:59.170Z,19.22
2019-03-16T02:44:59.082Z,19.2
2019-03-16T02:45:59.183Z,19.19
2019-03-16T02:46:59.042Z,19.2
2019-03-16T02:47:58.975Z,19.2
2019-03-16T02:48:58.961Z,19.19
2019-03-16T02:49:59.398Z,19.19
2019-03-16T02:50:58.928Z,19.22
2019-03-16T02:51:58.938Z,19.2
2019-03-16T02:52:59.490Z,19.19
2019-03-16T02:53:59.108Z,19.19
2019-03-16T02:54:59.151Z,19.19
2019-03-16T02:55:59.109Z,19.18
2019-03-16T02:56:58.922Z,19.16
2019-03-16T02:57:59.131Z,19.15
2019-03-16T02:58:58.904Z,19.19
2019-03-16T02:59:59.109Z,19.16
2019-03-16T03:00:59.071Z,19.16
2019-03-16T03:01:58.929Z,19.18
2019-03-16T03:02:59.107Z,19.19
2019-03-16T03:03:59.228Z,19.16
2019-03-16T03:04:59.024Z,19.16
2019-03-16T03:05:59.034Z,19.16
2019-03-16T03:06:59.063Z,19.15
2019-03-16T03:07:59.145Z,19.16
2019-03-16T03:08:59.233Z,19.15
2019-03-16T03:09:58.864Z,19.18
2019-03-16T03:11:00.910Z,19.18
2019-03-16T03:11:59.759Z,19.13
2019-03-16T03:12:58.948Z,19.16
2019-03-16T03:13:58.964Z,19.15
2019-03-16T03:14:59.099Z,19.15
2019-03-16T03:15:59.005Z,19.16
2019-03-16T03:16:59.373Z,19.13
2019-03-16T03:17:59.088Z,19.12
2019-03-16T03:18:59.032Z,19.15
2019-03-16T03:19:59.134Z,19.15
2019-03-16T03:20:58.866Z,19.16
2019-03-16T03:21:58.998Z,19.15
2019-03-16T03:22:59.098Z,19.15
2019-03-16T03:23:58.970Z,19.13
2019-03-16T03:24:59.098Z,19.15
2019-03-16T03:25:59.350Z,19.12
2019-03-16T03:26:58.874Z,19.11
2019-03-16T03:27:59.027Z,19.11
2019-03-16T03:28:59.250Z,19.11
2019-03-16T03:29:59.014Z,19.11
2019-03-16T03:30:58.931Z,19.12
2019-03-16T03:31:59.019Z,19.11
2019-03-16T03:32:59.510Z,19.13
2019-03-16T03:34:03.726Z,19.08
2019-03-16T03:34:59.039Z,19.09
2019-03-16T03:35:58.980Z,19.08
2019-03-16T03:36:58.829Z,19.08
2019-03-16T03:37:59.110Z,19.08
2019-03-16T03:38:59.044Z,19.08
2019-03-16T03:39:59.034Z,19.08
2019-03-16T03:41:02.696Z,19.06
2019-03-16T03:41:59.069Z,19.08
2019-03-16T03:42:58.913Z,19.06
2019-03-16T03:43:59.129Z,19.06
2019-03-16T03:44:58.948Z,19.09
2019-03-16T03:45:59.213Z,19.06
2019-03-16T03:46:59.139Z,19.06
2019-03-16T03:47:58.955Z,19.06
2019-03-16T03:48:59.022Z,19.05
2019-03-16T03:49:59.177Z,19.08
2019-03-16T03:50:59.038Z,19.05
2019-03-16T03:51:59.261Z,19.05
2019-03-16T03:52:58.839Z,19.06
2019-03-16T03:53:59.564Z,19.06
2019-03-16T03:54:59.588Z,19.05
2019-03-16T03:55:58.841Z,19.06
2019-03-16T03:56:58.944Z,19.06
2019-03-16T03:57:58.985Z,19.05
2019-03-16T03:58:59.280Z,19.05
2019-03-16T03:59:59.082Z,19.03
2019-03-16T04:00:59.153Z,19.05
2019-03-16T04:01:58.999Z,19.06
2019-03-16T04:02:59.059Z,19.03
2019-03-16T04:04:16.436Z,19.03
2019-03-16T04:04:58.854Z,19.03
2019-03-16T04:05:59.093Z,19.03
2019-03-16T04:06:59.218Z,19.05
2019-03-16T04:07:59.026Z,19.02
2019-03-16T04:08:59.084Z,19.05
2019-03-16T04:09:58.895Z,19.05
2019-03-16T04:10:58.941Z,19.03
2019-03-16T04:11:59.153Z,19.05
2019-03-16T04:12:59.159Z,19.05
2019-03-16T04:13:59.077Z,19.05
2019-03-16T04:14:59.294Z,19.03
2019-03-16T04:15:58.994Z,19.02
2019-03-16T04:16:59.114Z,19.01
2019-03-16T04:17:58.802Z,19.01
2019-03-16T04:18:58.932Z,19.02
2019-03-16T04:19:59.858Z,19.03
2019-03-16T04:20:59.127Z,18.99
2019-03-16T04:21:58.945Z,19.01
2019-03-16T04:22:59.060Z,19.01
2019-03-16T04:23:58.879Z,19.01
2019-03-16T04:24:59.040Z,18.99
2019-03-16T04:25:59.317Z,18.99
2019-03-16T04:27:17.255Z,19.02
2019-03-16T04:27:58.943Z,18.99
2019-03-16T04:28:59.146Z,18.98
2019-03-16T04:29:59.002Z,18.98
2019-03-16T04:30:59.026Z,19.01
2019-03-16T04:31:59.156Z,18.99
2019-03-16T04:32:58.909Z,18.98
2019-03-16T04:33:59.022Z,18.98
2019-03-16T04:34:58.865Z,18.98
2019-03-16T04:35:58.899Z,18.99
2019-03-16T04:36:59.074Z,18.97
2019-03-16T04:37:58.927Z,18.98
2019-03-16T04:38:58.952Z,18.99
2019-03-16T04:39:59.134Z,18.98
2019-03-16T04:40:59.235Z,18.98
2019-03-16T04:41:59.093Z,18.97
2019-03-16T04:42:58.895Z,18.99
2019-03-16T04:43:58.940Z,18.99
2019-03-16T04:44:58.950Z,19.01
2019-03-16T04:45:58.829Z,19.02
2019-03-16T04:46:58.997Z,19.02
2019-03-16T04:47:58.961Z,19.01
2019-03-16T04:48:59.036Z,19.03
2019-03-16T04:49:59.141Z,19.02
2019-03-16T04:50:58.914Z,19.05
2019-03-16T04:51:59.026Z,19.05
2019-03-16T04:52:59.039Z,19.08
2019-03-16T04:53:58.829Z,19.06
2019-03-16T04:54:58.906Z,19.08
2019-03-16T04:55:59.117Z,19.08
2019-03-16T04:56:58.934Z,19.11
2019-03-16T04:57:58.924Z,19.09
2019-03-16T04:58:59.155Z,19.11
2019-03-16T04:59:58.883Z,19.15
2019-03-16T05:00:59.043Z,19.13
2019-03-16T05:01:58.884Z,19.15
2019-03-16T05:02:58.985Z,19.16
2019-03-16T05:03:59.054Z,19.19
2019-03-16T05:04:58.782Z,19.19
2019-03-16T05:05:58.961Z,19.19
2019-03-16T05:06:58.992Z,19.2
2019-03-16T05:07:58.941Z,19.23
2019-03-16T05:08:58.996Z,19.25
2019-03-16T05:09:59.092Z,19.26
2019-03-16T05:10:58.973Z,19.27
2019-03-16T05:11:59.006Z,19.33
2019-03-16T05:12:59.094Z,19.33
2019-03-16T05:13:58.858Z,19.32
2019-03-16T05:14:59.061Z,19.35
2019-03-16T05:15:58.963Z,19.39
2019-03-16T05:16:58.883Z,19.37
2019-03-16T05:17:59.105Z,19.37
2019-03-16T05:18:58.957Z,19.42
2019-03-16T05:19:58.974Z,19.43
2019-03-16T05:20:58.870Z,19.46
2019-03-16T05:21:58.897Z,19.47
2019-03-16T05:22:58.962Z,19.47
2019-03-16T05:23:58.931Z,19.49
2019-03-16T05:24:58.882Z,19.52
2019-03-16T05:25:59.246Z,19.5
2019-03-16T05:26:58.838Z,19.54
2019-03-16T05:27:59.005Z,19.54
2019-03-16T05:28:59.007Z,19.58
2019-03-16T05:29:58.817Z,19.58
2019-03-16T05:30:58.942Z,19.63
2019-03-16T05:31:58.844Z,19.61
2019-03-16T05:32:58.977Z,19.61
2019-03-16T05:33:58.945Z,19.63
2019-03-16T05:34:58.951Z,19.63
2019-03-16T05:35:58.908Z,19.65
2019-03-16T05:36:59.142Z,19.67
2019-03-16T05:37:58.914Z,19.68
2019-03-16T05:38:58.917Z,19.68
2019-03-16T05:39:59.020Z,19.7
2019-03-16T05:40:58.857Z,19.73
2019-03-16T05:41:59.016Z,19.73
2019-03-16T05:42:58.794Z,19.74
2019-03-16T05:43:58.939Z,19.75
2019-03-16T05:44:58.899Z,19.77
2019-03-16T05:45:59.020Z,19.78
2019-03-16T05:46:58.915Z,19.78
2019-03-16T05:47:59.017Z,19.78
2019-03-16T05:48:58.855Z,19.81
2019-03-16T05:49:59.003Z,19.8
2019-03-16T05:50:58.827Z,19.84
2019-03-16T05:51:58.969Z,19.85
2019-03-16T05:52:59.015Z,19.84
2019-03-16T05:53:58.823Z,19.85
2019-03-16T05:54:58.870Z,19.86
2019-03-16T05:55:59.040Z,19.88
2019-03-16T05:56:58.804Z,19.88
2019-03-16T05:57:58.871Z,19.91
2019-03-16T05:58:59.069Z,19.91
2019-03-16T05:59:58.966Z,19.92
2019-03-16T06:00:59.054Z,19.92
2019-03-16T06:01:58.796Z,19.95
2019-03-16T06:02:58.863Z,19.93
2019-03-16T06:03:58.918Z,19.96
2019-03-16T06:05:11.777Z,19.96
2019-03-16T06:05:58.865Z,19.98
2019-03-16T06:06:59.202Z,19.98
2019-03-16T06:07:59.063Z,19.98
2019-03-16T06:08:58.917Z,20.01
2019-03-16T06:09:58.955Z,20.01
2019-03-16T06:10:58.908Z,19.99
2019-03-16T06:11:58.930Z,20.02
2019-03-16T06:12:58.935Z,20.04
2019-03-16T06:13:59.195Z,20.04
2019-03-16T06:14:58.925Z,20.07
2019-03-16T06:15:58.852Z,20.08
2019-03-16T06:16:58.840Z,20.09
2019-03-16T06:17:58.971Z,20.08
2019-03-16T06:18:59.137Z,20.08
2019-03-16T06:19:58.874Z,20.09
2019-03-16T06:20:59.324Z,20.11
2019-03-16T06:21:58.984Z,20.11
2019-03-16T06:22:58.988Z,20.11
2019-03-16T06:23:59.050Z,20.13
2019-03-16T06:24:58.828Z,20.15
2019-03-16T06:25:58.930Z,20.16
2019-03-16T06:26:59.028Z,20.15
2019-03-16T06:27:58.880Z,20.18
2019-03-16T06:28:58.969Z,20.13
2019-03-16T06:29:58.866Z,20.16
2019-03-16T06:30:58.915Z,20.18
2019-03-16T06:31:58.948Z,20.18
2019-03-16T06:32:58.888Z,20.19
2019-03-16T06:33:58.964Z,20.19
2019-03-16T06:34:59.087Z,20.2
2019-03-16T06:35:58.952Z,20.22
2019-03-16T06:36:58.998Z,20.23
2019-03-16T06:37:58.790Z,20.22
2019-03-16T06:38:58.992Z,20.22
2019-03-16T06:39:58.968Z,20.23
2019-03-16T06:40:58.801Z,20.25
2019-03-16T06:41:59.002Z,20.25
2019-03-16T06:42:58.999Z,20.22
2019-03-16T06:43:58.922Z,20.25
2019-03-16T06:44:58.974Z,20.26
2019-03-16T06:45:58.823Z,20.27
2019-03-16T06:46:58.877Z,20.29
2019-03-16T06:47:58.924Z,20.27
2019-03-16T06:48:59.198Z,20.29
2019-03-16T06:49:58.931Z,20.27
2019-03-16T06:50:59.048Z,20.32
2019-03-16T06:51:58.891Z,20.29
2019-03-16T06:52:58.939Z,20.29
2019-03-16T06:53:58.797Z,20.32
2019-03-16T06:54:58.821Z,20.32
2019-03-16T06:55:59.048Z,20.33
2019-03-16T06:56:58.873Z,20.32
2019-03-16T06:57:59.293Z,20.32
2019-03-16T06:58:58.843Z,20.33
2019-03-16T06:59:58.872Z,20.32
2019-03-16T07:00:58.916Z,20.36
2019-03-16T07:01:58.911Z,20.35
2019-03-16T07:02:58.958Z,20.33
2019-03-16T07:03:59.014Z,20.35
2019-03-16T07:04:58.827Z,20.35
2019-03-16T07:05:58.949Z,20.39
2019-03-16T07:06:58.718Z,20.36
2019-03-16T07:07:58.842Z,20.37
2019-03-16T07:08:58.908Z,20.37
2019-03-16T07:09:58.805Z,20.39
2019-03-16T07:10:58.952Z,20.37
2019-03-16T07:11:59.008Z,20.39
2019-03-16T07:12:58.861Z,20.4
2019-03-16T07:13:58.919Z,20.4
2019-03-16T07:14:58.723Z,20.4
2019-03-16T07:15:58.900Z,20.4
2019-03-16T07:17:02.835Z,20.4
2019-03-16T07:17:58.738Z,20.4
2019-03-16T07:18:59.502Z,20.42
2019-03-16T07:19:58.948Z,20.42
2019-03-16T07:20:58.892Z,20.42
2019-03-16T07:21:58.893Z,20.43
2019-03-16T07:22:59.038Z,20.42
2019-03-16T07:23:59.008Z,20.43
2019-03-16T07:24:59.006Z,20.42
2019-03-16T07:25:58.727Z,20.42
2019-03-16T07:26:58.839Z,20.43
2019-03-16T07:27:59.007Z,20.43
2019-03-16T07:28:58.902Z,20.42
2019-03-16T07:29:58.947Z,20.42
2019-03-16T07:30:58.971Z,20.43
2019-03-16T07:31:58.786Z,20.46
2019-03-16T07:32:58.834Z,20.43
2019-03-16T07:33:59.592Z,20.44
2019-03-16T07:34:58.896Z,20.43
2019-03-16T07:35:58.874Z,20.44
2019-03-16T07:36:58.717Z,20.46
2019-03-16T07:37:58.902Z,20.43
2019-03-16T07:38:58.983Z,20.46
2019-03-16T07:39:58.845Z,20.44
2019-03-16T07:40:58.930Z,20.44
2019-03-16T07:42:01.084Z,20.46
2019-03-16T07:42:58.855Z,20.46
2019-03-16T07:43:58.906Z,20.46
2019-03-16T07:45:09.423Z,20.46
2019-03-16T07:45:58.804Z,20.44
2019-03-16T07:46:58.941Z,20.46
2019-03-16T07:47:58.922Z,20.46
2019-03-16T07:48:58.831Z,20.46
2019-03-16T07:49:59.097Z,20.46
2019-03-16T07:50:58.918Z,20.46
2019-03-16T07:51:58.777Z,20.48
2019-03-16T07:52:58.952Z,20.47
2019-03-16T07:53:58.826Z,20.5
2019-03-16T07:54:59.230Z,20.47
2019-03-16T07:55:58.978Z,20.48
2019-03-16T07:56:58.939Z,20.47
2019-03-16T07:57:58.846Z,20.48
2019-03-16T07:58:59.030Z,20.47
2019-03-16T07:59:58.742Z,20.48
2019-03-16T08:00:58.960Z,20.47
2019-03-16T08:01:59.052Z,20.5
2019-03-16T08:02:59.080Z,20.5
2019-03-16T08:03:58.973Z,20.5
2019-03-16T08:04:58.798Z,20.47
2019-03-16T08:05:58.893Z,20.5
2019-03-16T08:06:58.853Z,20.51
2019-03-16T08:07:58.810Z,20.5
2019-03-16T08:08:59.137Z,20.51
2019-03-16T08:10:03.233Z,20.48
2019-03-16T08:10:59.119Z,20.5
2019-03-16T08:11:58.877Z,20.5
2019-03-16T08:12:58.919Z,20.5
2019-03-16T08:13:58.785Z,20.5
2019-03-16T08:14:58.978Z,20.48
2019-03-16T08:15:58.777Z,20.5
2019-03-16T08:16:58.929Z,20.51
2019-03-16T08:17:59.039Z,20.51
2019-03-16T08:18:58.724Z,20.5
2019-03-16T08:19:58.963Z,20.51
2019-03-16T08:20:59.014Z,20.5
2019-03-16T08:21:59.000Z,20.5
2019-03-16T08:22:59.007Z,20.5
2019-03-16T08:23:58.762Z,20.5
2019-03-16T08:24:58.838Z,20.48
2019-03-16T08:25:58.970Z,20.48
2019-03-16T08:26:58.750Z,20.48
2019-03-16T08:27:58.906Z,20.47
2019-03-16T08:28:59.820Z,20.5
2019-03-16T08:29:58.775Z,20.5
2019-03-16T08:30:58.936Z,20.5
2019-03-16T08:31:58.804Z,20.51
2019-03-16T08:32:58.810Z,20.5
2019-03-16T08:33:58.933Z,20.48
2019-03-16T08:35:01.244Z,20.48
2019-03-16T08:35:58.951Z,20.48
2019-03-16T08:36:59.084Z,20.48
2019-03-16T08:37:59.032Z,20.48
2019-03-16T08:38:58.988Z,20.5
2019-03-16T08:39:58.685Z,20.5
2019-03-16T08:40:58.800Z,20.48
2019-03-16T08:41:59.027Z,20.51
2019-03-16T08:42:58.847Z,20.48
2019-03-16T08:43:58.904Z,20.48
2019-03-16T08:44:58.704Z,20.48
2019-03-16T08:45:58.899Z,20.51
2019-03-16T08:46:59.010Z,20.5
2019-03-16T08:47:58.825Z,20.5
2019-03-16T08:48:58.927Z,20.5
2019-03-16T08:49:59.043Z,20.5
2019-03-16T08:50:58.850Z,20.48
2019-03-16T08:51:58.996Z,20.47
2019-03-16T08:52:58.645Z,20.48
2019-03-16T08:53:58.929Z,20.51
2019-03-16T08:54:58.715Z,20.51
2019-03-16T08:55:58.789Z,20.53
2019-03-16T08:56:58.917Z,20.51
2019-03-16T08:58:06.710Z,20.53
2019-03-16T08:58:58.928Z,20.53
2019-03-16T08:59:59.383Z,20.55
2019-03-16T09:00:58.832Z,20.51
2019-03-16T09:01:58.937Z,20.51
2019-03-16T09:02:58.996Z,20.5
2019-03-16T09:03:58.826Z,20.54
2019-03-16T09:04:58.943Z,20.54
2019-03-16T09:05:58.803Z,20.54
2019-03-16T09:06:58.824Z,20.53
2019-03-16T09:07:59.000Z,20.51
2019-03-16T09:08:58.853Z,20.55
2019-03-16T09:09:58.926Z,20.55
2019-03-16T09:10:59.007Z,20.57
2019-03-16T09:11:58.751Z,20.55
2019-03-16T09:12:58.840Z,20.57
2019-03-16T09:13:58.687Z,20.55
2019-03-16T09:14:58.767Z,20.59
2019-03-16T09:15:58.882Z,20.6
2019-03-16T09:16:58.903Z,20.6
2019-03-16T09:17:58.729Z,20.6
2019-03-16T09:18:58.904Z,20.6
2019-03-16T09:19:58.788Z,20.6
2019-03-16T09:20:59.399Z,20.59
2019-03-16T09:21:59.079Z,20.61
2019-03-16T09:22:58.858Z,20.6
2019-03-16T09:23:58.761Z,20.57
2019-03-16T09:24:58.942Z,20.47
2019-03-16T09:25:58.802Z,20.4
2019-03-16T09:26:58.887Z,20.33
2019-03-16T09:27:58.765Z,20.3
2019-03-16T09:29:00.712Z,20.23
2019-03-16T09:29:58.987Z,20.19
2019-03-16T09:30:58.730Z,20.16
2019-03-16T09:31:58.886Z,20.12
2019-03-16T09:32:59.006Z,20.04
2019-03-16T09:33:58.845Z,20.01
2019-03-16T09:34:59.483Z,19.96
2019-03-16T09:35:59.037Z,20.02
2019-03-16T09:36:58.729Z,20.05
2019-03-16T09:37:59.765Z,20.08
2019-03-16T09:38:58.949Z,20.11
2019-03-16T09:39:58.889Z,20.15
2019-03-16T09:40:59.078Z,20.2
2019-03-16T09:41:58.769Z,20.2
2019-03-16T09:42:59.104Z,20.2
2019-03-16T09:44:02.374Z,20.23
2019-03-16T09:44:58.820Z,20.26
2019-03-16T09:45:58.951Z,20.27
2019-03-16T09:46:58.703Z,20.29
2019-03-16T09:47:58.884Z,20.29
2019-03-16T09:48:58.857Z,20.33
2019-03-16T09:49:58.835Z,20.33
2019-03-16T09:50:59.129Z,20.32
2019-03-16T09:51:58.880Z,20.32
2019-03-16T09:52:58.957Z,20.36
2019-03-16T09:53:58.930Z,20.35
2019-03-16T09:54:59.010Z,20.35
2019-03-16T09:55:58.895Z,20.35
2019-03-16T09:57:02.161Z,20.36
2019-03-16T09:57:58.740Z,20.39
2019-03-16T09:58:58.750Z,20.35
2019-03-16T09:59:58.913Z,20.35
2019-03-16T10:00:58.854Z,20.37
2019-03-16T10:01:58.904Z,20.37
2019-03-16T10:02:58.923Z,20.36
2019-03-16T10:03:58.932Z,20.37
2019-03-16T10:04:58.956Z,20.37
2019-03-16T10:05:58.928Z,20.36
2019-03-16T10:06:58.828Z,20.37
2019-03-16T10:07:58.962Z,20.36
2019-03-16T10:08:58.770Z,20.36
2019-03-16T10:09:58.863Z,20.36
2019-03-16T10:10:58.892Z,20.36
2019-03-16T10:11:58.809Z,20.36
2019-03-16T10:12:59.062Z,20.37
2019-03-16T10:13:58.903Z,20.3
2019-03-16T10:14:58.733Z,20.36
2019-03-16T10:15:58.844Z,20.35
2019-03-16T10:16:58.835Z,20.36
2019-03-16T10:17:58.730Z,20.36
2019-03-16T10:18:58.927Z,20.37
2019-03-16T10:19:58.723Z,20.37
2019-03-16T10:20:58.749Z,20.37
2019-03-16T10:21:58.919Z,20.39
2019-03-16T10:22:58.988Z,20.39
2019-03-16T10:23:58.815Z,20.4
2019-03-16T10:24:58.962Z,20.39
2019-03-16T10:25:59.067Z,20.39
2019-03-16T10:26:59.647Z,20.42
2019-03-16T10:27:58.906Z,20.39
2019-03-16T10:28:58.876Z,20.4
2019-03-16T10:30:04.111Z,20.4
2019-03-16T10:30:58.694Z,20.42
2019-03-16T10:31:59.030Z,20.4
2019-03-16T10:32:58.923Z,20.42
2019-03-16T10:33:58.745Z,20.4
2019-03-16T10:34:58.957Z,20.39
2019-03-16T10:35:59.172Z,20.39
2019-03-16T10:36:58.743Z,20.39
2019-03-16T10:37:59.138Z,20.37
2019-03-16T10:38:58.799Z,20.37
2019-03-16T10:39:58.974Z,20.36
2019-03-16T10:40:58.881Z,20.35
2019-03-16T10:41:58.806Z,20.35
2019-03-16T10:42:58.799Z,20.35
2019-03-16T10:43:58.631Z,20.35
2019-03-16T10:44:58.814Z,20.36
2019-03-16T10:45:59.214Z,20.32
2019-03-16T10:46:58.958Z,20.3
2019-03-16T10:47:58.849Z,20.32
2019-03-16T10:48:58.917Z,20.3
2019-03-16T10:49:58.789Z,20.32
2019-03-16T10:50:58.862Z,20.3
2019-03-16T10:51:58.969Z,20.29
2019-03-16T10:52:58.697Z,20.26
2019-03-16T10:53:58.895Z,20.27
2019-03-16T10:54:58.875Z,20.26
2019-03-16T10:55:59.005Z,20.26
2019-03-16T10:56:58.986Z,20.25
2019-03-16T10:57:58.976Z,20.26
2019-03-16T10:58:58.740Z,20.25
2019-03-16T10:59:58.840Z,20.23
2019-03-16T11:00:58.990Z,20.22
2019-03-16T11:01:58.825Z,20.22
2019-03-16T11:02:58.870Z,20.23
2019-03-16T11:03:58.698Z,20.2
2019-03-16T11:04:58.758Z,20.19
2019-03-16T11:05:58.869Z,20.19
2019-03-16T11:06:58.806Z,20.22
2019-03-16T11:07:58.742Z,20.18
2019-03-16T11:08:59.219Z,20.19
2019-03-16T11:09:59.045Z,20.19
2019-03-16T11:10:58.775Z,20.16
2019-03-16T11:11:58.677Z,20.16
2019-03-16T11:12:58.807Z,20.15
2019-03-16T11:13:58.861Z,20.15
2019-03-16T11:14:58.746Z,20.13
2019-03-16T11:15:58.916Z,20.16
2019-03-16T11:16:58.878Z,20.19
2019-03-16T11:17:58.723Z,20.13
2019-03-16T11:18:58.908Z,20.13
2019-03-16T11:19:59.910Z,20.15
2019-03-16T11:20:58.841Z,20.13
2019-03-16T11:21:58.854Z,20.13
2019-03-16T11:22:58.973Z,20.12
2019-03-16T11:23:58.774Z,20.13
2019-03-16T11:24:58.943Z,20.13
2019-03-16T11:25:58.788Z,20.13
2019-03-16T11:26:58.870Z,20.15
2019-03-16T11:27:58.922Z,20.12
2019-03-16T11:29:09.667Z,20.09
2019-03-16T11:29:58.838Z,20.08
2019-03-16T11:30:58.976Z,20.04
2019-03-16T11:31:58.698Z,20.02
2019-03-16T11:32:58.848Z,20.01
2019-03-16T11:33:58.811Z,19.99
2019-03-16T11:34:59.014Z,19.98
2019-03-16T11:35:58.968Z,19.98
2019-03-16T11:36:58.835Z,19.95
2019-03-16T11:37:58.854Z,19.95
2019-03-16T11:38:58.746Z,19.93
2019-03-16T11:39:58.710Z,19.92
2019-03-16T11:40:58.954Z,19.95
2019-03-16T11:41:58.746Z,19.93
2019-03-16T11:42:58.773Z,19.92
2019-03-16T11:43:58.736Z,19.92
2019-03-16T11:44:58.807Z,19.91
2019-03-16T11:45:58.970Z,19.89
2019-03-16T11:46:58.754Z,19.91
2019-03-16T11:47:58.972Z,19.91
2019-03-16T11:48:58.790Z,19.88
2019-03-16T11:49:58.653Z,19.91
2019-03-16T11:50:58.887Z,19.88
2019-03-16T11:51:59.084Z,19.89
2019-03-16T11:52:58.981Z,19.89
2019-03-16T11:53:58.839Z,19.86
2019-03-16T11:54:58.687Z,19.86
2019-03-16T11:55:58.826Z,19.86
2019-03-16T11:56:59.016Z,19.89
2019-03-16T11:57:58.766Z,19.89
2019-03-16T11:58:58.858Z,19.88
2019-03-16T11:59:58.872Z,19.91
2019-03-16T12:00:58.726Z,19.91
2019-03-16T12:02:06.186Z,19.89
2019-03-16T12:02:58.888Z,19.88
2019-03-16T12:03:58.755Z,19.88
2019-03-16T12:04:58.915Z,19.86
2019-03-16T12:05:58.616Z,19.88
2019-03-16T12:06:59.316Z,19.89
2019-03-16T12:07:58.831Z,19.89
2019-03-16T12:08:58.810Z,19.93
2019-03-16T12:09:58.862Z,19.95
2019-03-16T12:10:58.711Z,19.98
2019-03-16T12:11:58.804Z,19.98
2019-03-16T12:12:58.871Z,19.98
2019-03-16T12:13:59.239Z,20.02
2019-03-16T12:14:59.891Z,20.07
2019-03-16T12:15:58.873Z,20.07
2019-03-16T12:16:58.854Z,20.11
2019-03-16T12:17:58.795Z,20.12
2019-03-16T12:18:58.725Z,20.13
2019-03-16T12:19:58.883Z,20.13
2019-03-16T12:20:58.839Z,20.18
2019-03-16T12:21:58.978Z,20.15
2019-03-16T12:22:58.781Z,20.15
2019-03-16T12:23:58.920Z,20.18
2019-03-16T12:24:58.678Z,20.18
2019-03-16T12:25:58.855Z,20.19
2019-03-16T12:26:58.820Z,20.2
2019-03-16T12:27:58.817Z,20.22
2019-03-16T12:28:58.823Z,20.2
2019-03-16T12:29:58.669Z,20.23
2019-03-16T12:30:58.850Z,20.26
2019-03-16T12:31:58.863Z,20.25
2019-03-16T12:32:58.784Z,20.25
2019-03-16T12:33:59.067Z,20.22
2019-03-16T12:34:58.719Z,20.26
2019-03-16T12:35:58.855Z,20.26
2019-03-16T12:36:58.978Z,20.26
2019-03-16T12:37:58.770Z,20.26
2019-03-16T12:38:58.882Z,20.27
2019-03-16T12:39:58.849Z,20.29
2019-03-16T12:40:58.662Z,20.27
2019-03-16T12:41:58.889Z,20.3
2019-03-16T12:42:58.662Z,20.33
2019-03-16T12:43:58.737Z,20.36
2019-03-16T12:44:58.858Z,20.32
2019-03-16T12:45:58.698Z,20.36
2019-03-16T12:46:58.807Z,20.36
2019-03-16T12:47:59.191Z,20.35
2019-03-16T12:48:58.665Z,20.36
2019-03-16T12:49:58.758Z,20.37
2019-03-16T12:50:58.862Z,20.37
2019-03-16T12:51:58.822Z,20.39
2019-03-16T12:52:58.642Z,20.39
2019-03-16T12:53:58.774Z,20.43
2019-03-16T12:54:58.916Z,20.42
2019-03-16T12:55:58.865Z,20.44